Cobb, California
Current Conditions -  °F | °C
As of 6:53 AM on Thursday 30 Oct 2014 (Local Time) from KSTS Reporting Station
Clear Clear  
Wind Chill: 52°   Ceiling: Unl
Heat Index: 52°   Visibility: 10mi
Dew Point: 51°   Wind: 0mph
Humidity: 97%   Direction: NA
Pressure: 29.92"   Gusts: NA
Location:  38.84°N, 122.73°W
Report Text: KSTS 301353Z 00000KT 10SM CLR 11/11 A2992 RMK AO2 SLP126 T01110106
Loading
Personal Weather Stations






























Interactive Weather Map
Tropical Storm Tracking
New forecast layout! Learn more

10-Day Weather Forecast

Advertisements
Track Severe Weather on mobile